Time;durP1;ratioP1;P1;durP2;ratioP2;P2;SDS_P1;SDS_P2;PMS_P1;PMS_P2;Temp;Humidity;BMP_temperature;BMP_pressure;BME280_temperature;BME280_humidity;BME280_pressure;Samples;Min_cycle;Max_cycle;Signal;HPM_P1;HPM_P2
2021/11/21 00:00:28;;;;;;;11.27;8.97;;;;;;;;;;5051994;28;20476;-63
2021/11/21 00:02:54;;;;;;;13.00;11.23;;;;;;;;;;5039100;28;20557;-62
2021/11/21 00:05:20;;;;;;;13.77;10.40;;;;;;;;;;5034267;28;20441;-62
2021/11/21 00:07:46;;;;;;;14.73;11.10;;;;;;;;;;5051594;28;20444;-62
2021/11/21 00:10:12;;;;;;;13.53;9.70;;;;;;;;;;5039318;28;20410;-63
2021/11/21 00:12:39;;;;;;;18.23;12.17;;;;;;;;;;5035250;28;20777;-62
2021/11/21 00:15:06;;;;;;;13.90;10.33;;;;;;;;;;5036886;28;20450;-63
2021/11/21 00:17:32;;;;;;;15.03;11.63;;;;;;;;;;5052154;28;20853;-67
2021/11/21 00:19:58;;;;;;;15.80;11.80;;;;;;;;;;5043266;28;20407;-62
2021/11/21 00:22:25;;;;;;;15.83;11.37;;;;;;;;;;5034918;28;20414;-62
2021/11/21 00:24:52;;;;;;;13.60;10.00;;;;;;;;;;5034373;28;20461;-63
2021/11/21 00:27:18;;;;;;;15.20;10.87;;;;;;;;;;5041204;28;20434;-63
2021/11/21 00:29:45;;;;;;;14.80;10.13;;;;;;;;;;5052171;28;20430;-61
2021/11/21 00:32:11;;;;;;;14.67;10.17;;;;;;;;;;5053011;28;20448;-62
2021/11/21 00:34:37;;;;;;;14.37;10.10;;;;;;;;;;5053111;28;20514;-63
2021/11/21 00:37:03;;;;;;;15.03;10.70;;;;;;;;;;5053365;28;20430;-62
2021/11/21 00:39:29;;;;;;;12.57;10.50;;;;;;;;;;5042557;28;20439;-62
2021/11/21 00:41:55;;;;;;;16.90;10.23;;;;;;;;;;5052605;28;20410;-62
2021/11/21 00:44:22;;;;;;;16.33;10.97;;;;;;;;;;5053264;28;20409;-63
2021/11/21 00:46:48;;;;;;;16.13;11.90;;;;;;;;;;5051923;28;20795;-63
2021/11/21 00:49:17;;;;;;;15.07;11.43;;;;;;;;;;5040632;28;20967;-62
2021/11/21 00:51:44;;;;;;;13.10;9.40;;;;;;;;;;5034370;28;20472;-63
2021/11/21 00:56:48;;;;;;;13.63;10.23;;;;;;;;;;5033733;28;20418;-63
2021/11/21 00:59:19;;;;;;;15.07;10.80;;;;;;;;;;5035916;28;20418;-62
2021/11/21 01:01:45;;;;;;;18.70;11.83;;;;;;;;;;5033887;28;20900;-62
2021/11/21 01:04:11;;;;;;;13.83;9.73;;;;;;;;;;5033170;28;20403;-63
2021/11/21 01:06:37;;;;;;;14.40;10.70;;;;;;;;;;5033091;28;20501;-65
2021/11/21 01:09:04;;;;;;;15.03;10.30;;;;;;;;;;5039114;28;20811;-62
2021/11/21 01:11:30;;;;;;;11.37;9.33;;;;;;;;;;5034037;28;20421;-63
2021/11/21 01:13:56;;;;;;;15.43;9.33;;;;;;;;;;5033085;28;20779;-62
2021/11/21 01:16:22;;;;;;;11.60;8.07;;;;;;;;;;5032862;28;20938;-62
2021/11/21 01:18:48;;;;;;;13.87;8.77;;;;;;;;;;5035650;28;20782;-63
2021/11/21 01:21:14;;;;;;;10.23;8.53;;;;;;;;;;5039541;28;20493;-63
2021/11/21 01:23:40;;;;;;;10.40;7.43;;;;;;;;;;5052824;28;20898;-63
2021/11/21 01:26:07;;;;;;;12.13;8.80;;;;;;;;;;5052793;28;20409;-63
2021/11/21 01:28:33;;;;;;;14.60;10.10;;;;;;;;;;5047886;28;20424;-64
2021/11/21 01:30:59;;;;;;;13.27;9.00;;;;;;;;;;5037034;28;20497;-63
2021/11/21 01:33:25;;;;;;;13.77;9.73;;;;;;;;;;5032706;28;20456;-63
2021/11/21 01:35:52;;;;;;;15.60;10.80;;;;;;;;;;5032748;28;20938;-62
2021/11/21 01:38:19;;;;;;;14.63;10.37;;;;;;;;;;5043961;28;20525;-62
2021/11/21 01:40:46;;;;;;;14.10;10.07;;;;;;;;;;5051336;28;20457;-62
2021/11/21 01:43:12;;;;;;;16.67;8.57;;;;;;;;;;5052540;28;20405;-62
2021/11/21 01:45:38;;;;;;;15.70;10.10;;;;;;;;;;5052622;28;20879;-63
2021/11/21 01:48:04;;;;;;;11.37;8.70;;;;;;;;;;5051354;28;20960;-63
2021/11/21 01:50:33;;;;;;;18.03;11.13;;;;;;;;;;5049832;28;20423;-62
2021/11/21 01:52:59;;;;;;;14.27;9.73;;;;;;;;;;5052688;28;20417;-63
2021/11/21 01:55:26;;;;;;;12.77;8.97;;;;;;;;;;5052976;28;20453;-63
2021/11/21 01:57:56;;;;;;;14.07;8.40;;;;;;;;;;5054446;28;20444;-62
2021/11/21 02:00:24;;;;;;;12.10;8.30;;;;;;;;;;5055408;28;20440;-60
2021/11/21 02:02:51;;;;;;;8.90;7.50;;;;;;;;;;5045236;28;20519;-62
2021/11/21 02:05:17;;;;;;;10.10;8.20;;;;;;;;;;5050615;28;20979;-63
2021/11/21 02:07:43;;;;;;;8.77;7.13;;;;;;;;;;5054680;28;20467;-62
2021/11/21 02:10:10;;;;;;;9.00;7.60;;;;;;;;;;5042588;28;20453;-62
2021/11/21 02:12:37;;;;;;;7.73;6.40;;;;;;;;;;5036585;28;20411;-62
2021/11/21 02:15:03;;;;;;;7.97;6.70;;;;;;;;;;5049280;28;20510;-62
2021/11/21 02:17:30;;;;;;;11.47;7.53;;;;;;;;;;5046593;28;20433;-62
2021/11/21 02:19:58;;;;;;;11.67;8.83;;;;;;;;;;5050900;28;20414;-61
2021/11/21 02:22:24;;;;;;;10.40;6.90;;;;;;;;;;5055839;28;20406;-61
2021/11/21 02:24:50;;;;;;;8.20;6.20;;;;;;;;;;5055593;28;20836;-62
2021/11/21 02:27:19;;;;;;;7.63;6.30;;;;;;;;;;5054919;28;20436;-63
2021/11/21 02:29:45;;;;;;;7.27;6.57;;;;;;;;;;5050937;28;20414;-62
2021/11/21 02:32:11;;;;;;;7.83;5.60;;;;;;;;;;5036034;28;20949;-62
2021/11/21 02:34:37;;;;;;;10.57;6.73;;;;;;;;;;5036553;28;20450;-62
2021/11/21 02:37:06;;;;;;;7.03;6.10;;;;;;;;;;5041621;28;20446;-63
2021/11/21 02:39:32;;;;;;;5.23;4.73;;;;;;;;;;5055620;28;20425;-63
2021/11/21 02:41:58;;;;;;;8.23;5.70;;;;;;;;;;5055697;28;20421;-64
2021/11/21 02:44:26;;;;;;;6.57;5.23;;;;;;;;;;5054971;28;20414;-63
2021/11/21 02:46:52;;;;;;;6.70;5.83;;;;;;;;;;5054525;28;20442;-63
2021/11/21 02:49:18;;;;;;;7.83;5.70;;;;;;;;;;5055502;28;20402;-62
2021/11/21 02:51:44;;;;;;;7.50;6.53;;;;;;;;;;5055159;28;20410;-62
2021/11/21 02:54:10;;;;;;;7.53;6.27;;;;;;;;;;5054781;28;20476;-62
2021/11/21 02:56:36;;;;;;;7.10;6.03;;;;;;;;;;5051649;28;20422;-62
2021/11/21 02:59:02;;;;;;;11.53;6.93;;;;;;;;;;5054833;28;20887;-64
2021/11/21 03:01:29;;;;;;;15.67;8.60;;;;;;;;;;5044839;28;20883;-65
2021/11/21 03:03:56;;;;;;;15.33;8.10;;;;;;;;;;5036103;28;20808;-63
2021/11/21 03:06:23;;;;;;;10.67;7.20;;;;;;;;;;5035341;28;20927;-62
2021/11/21 03:08:49;;;;;;;7.97;6.13;;;;;;;;;;5053567;28;20911;-63
2021/11/21 03:11:20;;;;;;;9.00;6.00;;;;;;;;;;5050260;28;20410;-65
2021/11/21 03:13:46;;;;;;;6.70;6.00;;;;;;;;;;5055030;28;20405;-63
2021/11/21 03:16:12;;;;;;;7.10;5.97;;;;;;;;;;5054063;28;20402;-63
2021/11/21 03:18:39;;;;;;;12.57;8.60;;;;;;;;;;5054456;28;20997;-63
2021/11/21 03:21:05;;;;;;;10.13;6.50;;;;;;;;;;5052735;28;20414;-64
2021/11/21 03:23:31;;;;;;;19.93;9.10;;;;;;;;;;5035261;28;20405;-64
2021/11/21 03:25:57;;;;;;;15.17;8.90;;;;;;;;;;5040836;28;20406;-63
2021/11/21 03:28:23;;;;;;;14.40;7.90;;;;;;;;;;5054585;28;20430;-63
2021/11/21 03:30:49;;;;;;;9.13;6.90;;;;;;;;;;5052872;28;20759;-63
2021/11/21 03:33:15;;;;;;;8.83;6.10;;;;;;;;;;5046732;28;20803;-64
2021/11/21 03:35:41;;;;;;;9.47;6.87;;;;;;;;;;5040056;28;20454;-62
2021/11/21 03:38:07;;;;;;;8.17;6.27;;;;;;;;;;5052552;28;20426;-64
2021/11/21 03:40:33;;;;;;;8.30;6.37;;;;;;;;;;5053471;28;20493;-64
2021/11/21 03:43:00;;;;;;;10.43;6.00;;;;;;;;;;5042392;28;20411;-62
2021/11/21 03:45:26;;;;;;;8.33;6.57;;;;;;;;;;5035029;28;20414;-63
2021/11/21 03:47:52;;;;;;;7.37;6.13;;;;;;;;;;5034820;28;20429;-63
2021/11/21 03:50:19;;;;;;;7.30;6.50;;;;;;;;;;5052709;28;20819;-63
2021/11/21 03:52:45;;;;;;;9.30;6.60;;;;;;;;;;5054647;28;20468;-63
2021/11/21 03:55:12;;;;;;;9.53;6.67;;;;;;;;;;5053933;28;20954;-63
2021/11/21 03:57:38;;;;;;;7.63;6.43;;;;;;;;;;5057920;28;20441;-63
2021/11/21 04:00:09;;;;;;;8.33;6.50;;;;;;;;;;5055151;28;20425;-63
2021/11/21 04:02:35;;;;;;;9.00;7.13;;;;;;;;;;5050348;28;20761;-63
2021/11/21 04:05:02;;;;;;;10.10;7.77;;;;;;;;;;5050259;28;20410;-63
2021/11/21 04:07:28;;;;;;;9.43;7.70;;;;;;;;;;5034264;28;20491;-63
2021/11/21 04:09:54;;;;;;;9.60;6.57;;;;;;;;;;5041417;28;20441;-65
2021/11/21 04:12:20;;;;;;;8.30;6.40;;;;;;;;;;5034314;28;20422;-62
2021/11/21 04:14:46;;;;;;;9.53;7.20;;;;;;;;;;5034912;28;20454;-62
2021/11/21 04:17:12;;;;;;;6.57;5.70;;;;;;;;;;5033756;28;20419;-63
2021/11/21 04:19:38;;;;;;;9.70;6.50;;;;;;;;;;5045876;28;20497;-65
2021/11/21 04:22:04;;;;;;;7.50;6.10;;;;;;;;;;5042128;28;20493;-62
2021/11/21 04:24:30;;;;;;;9.30;6.60;;;;;;;;;;5052519;28;20504;-62
2021/11/21 04:26:56;;;;;;;10.30;7.73;;;;;;;;;;5053525;28;20479;-62
2021/11/21 04:29:22;;;;;;;7.80;5.93;;;;;;;;;;5052982;28;20421;-64
2021/11/21 04:31:50;;;;;;;9.30;5.10;;;;;;;;;;5040673;28;20761;-62
2021/11/21 04:34:17;;;;;;;15.10;5.33;;;;;;;;;;5037077;28;20958;-62
2021/11/21 04:36:43;;;;;;;12.90;5.90;;;;;;;;;;5037919;28;20437;-63
2021/11/21 04:39:09;;;;;;;7.33;6.33;;;;;;;;;;5043546;28;20433;-64
2021/11/21 04:41:35;;;;;;;7.97;5.50;;;;;;;;;;5053268;28;20444;-64
2021/11/21 04:44:02;;;;;;;10.60;6.40;;;;;;;;;;5051435;28;20441;-61
2021/11/21 04:46:28;;;;;;;14.87;6.20;;;;;;;;;;5033317;28;20427;-63
2021/11/21 04:48:54;;;;;;;8.20;5.90;;;;;;;;;;5033828;28;20546;-63
2021/11/21 04:51:20;;;;;;;15.80;6.77;;;;;;;;;;5033831;28;20763;-65
2021/11/21 04:53:47;;;;;;;16.47;8.17;;;;;;;;;;5046195;28;20417;-64
2021/11/21 04:56:13;;;;;;;11.57;7.30;;;;;;;;;;5049831;28;20414;-63
2021/11/21 04:58:39;;;;;;;9.23;7.00;;;;;;;;;;5052875;28;20435;-64
2021/11/21 05:01:05;;;;;;;8.13;6.13;;;;;;;;;;5038570;28;20406;-63
2021/11/21 05:03:31;;;;;;;12.03;7.50;;;;;;;;;;5052753;28;20469;-64
2021/11/21 05:05:57;;;;;;;8.57;6.50;;;;;;;;;;5052580;28;20437;-63
2021/11/21 05:08:24;;;;;;;14.10;6.13;;;;;;;;;;5052321;28;20418;-65
2021/11/21 05:10:50;;;;;;;8.47;6.10;;;;;;;;;;5052589;28;20394;-65
2021/11/21 05:13:16;;;;;;;11.03;6.83;;;;;;;;;;5033099;28;20938;-66
2021/11/21 05:15:42;;;;;;;11.77;7.50;;;;;;;;;;5048594;28;20481;-61
2021/11/21 05:18:08;;;;;;;10.57;7.40;;;;;;;;;;5048838;28;20942;-66
2021/11/21 05:20:35;;;;;;;21.50;7.17;;;;;;;;;;5039365;28;20439;-63
2021/11/21 05:23:02;;;;;;;10.30;6.00;;;;;;;;;;5047213;28;20410;-64
2021/11/21 05:25:28;;;;;;;11.77;8.13;;;;;;;;;;5051759;28;20425;-63
2021/11/21 05:27:54;;;;;;;17.30;8.57;;;;;;;;;;5052758;28;20432;-62
2021/11/21 05:30:22;;;;;;;11.33;7.67;;;;;;;;;;5051971;28;20829;-64
2021/11/21 05:32:48;;;;;;;9.30;6.97;;;;;;;;;;5045296;28;20460;-62
2021/11/21 05:35:14;;;;;;;9.27;6.87;;;;;;;;;;5037850;28;20808;-63
2021/11/21 05:37:40;;;;;;;11.70;7.10;;;;;;;;;;5036819;28;20431;-63
2021/11/21 05:40:09;;;;;;;10.40;7.43;;;;;;;;;;5048996;28;20421;-63
2021/11/21 05:42:35;;;;;;;13.03;6.70;;;;;;;;;;5050363;28;20403;-65
2021/11/21 05:45:01;;;;;;;7.27;6.27;;;;;;;;;;4997462;22;21006;-67
2021/11/21 05:47:28;;;;;;;13.33;5.40;;;;;;;;;;4937925;28;20531;-66
2021/11/21 05:49:54;;;;;;;17.53;7.03;;;;;;;;;;4938252;28;20454;-66
2021/11/21 05:52:21;;;;;;;13.30;5.87;;;;;;;;;;4942146;29;20417;-65
2021/11/21 05:54:47;;;;;;;10.90;5.53;;;;;;;;;;4937454;29;20466;-67
2021/11/21 05:57:13;;;;;;;5.63;4.80;;;;;;;;;;4936299;29;20482;-66
2021/11/21 05:59:39;;;;;;;7.40;5.80;;;;;;;;;;4937051;29;20469;-66
2021/11/21 06:02:06;;;;;;;9.80;5.73;;;;;;;;;;4936542;29;20411;-66
2021/11/21 06:04:32;;;;;;;6.73;5.00;;;;;;;;;;4951624;28;20446;-66
2021/11/21 06:06:58;;;;;;;42.93;7.43;;;;;;;;;;4954531;28;20805;-66
2021/11/21 06:09:24;;;;;;;6.47;4.90;;;;;;;;;;4937023;28;21009;-66
2021/11/21 06:11:51;;;;;;;5.87;4.80;;;;;;;;;;4937694;29;20526;-66
2021/11/21 06:14:17;;;;;;;6.03;4.80;;;;;;;;;;4937197;29;21050;-66
2021/11/21 06:16:43;;;;;;;11.30;5.40;;;;;;;;;;4936618;29;20415;-66
2021/11/21 06:19:09;;;;;;;8.73;5.00;;;;;;;;;;4936727;29;20412;-66
2021/11/21 06:21:36;;;;;;;8.70;5.90;;;;;;;;;;4935937;29;20399;-66
2021/11/21 06:24:02;;;;;;;12.70;5.90;;;;;;;;;;4941977;29;20830;-66
2021/11/21 06:26:28;;;;;;;7.80;5.33;;;;;;;;;;4954188;29;20406;-66
2021/11/21 06:28:55;;;;;;;9.60;5.80;;;;;;;;;;4954871;29;20456;-66
2021/11/21 06:31:21;;;;;;;7.63;5.77;;;;;;;;;;4954807;29;20501;-66
2021/11/21 06:33:47;;;;;;;7.30;6.07;;;;;;;;;;4952686;28;20495;-66
2021/11/21 06:36:14;;;;;;;6.40;5.70;;;;;;;;;;4951371;29;20478;-66
2021/11/21 06:38:40;;;;;;;8.40;5.47;;;;;;;;;;4954992;28;20410;-66
2021/11/21 06:41:06;;;;;;;7.23;6.20;;;;;;;;;;4953214;28;20435;-66
2021/11/21 06:43:32;;;;;;;6.60;5.33;;;;;;;;;;4952390;28;20459;-67
2021/11/21 06:45:59;;;;;;;7.03;4.90;;;;;;;;;;4938615;29;20454;-66
2021/11/21 06:48:25;;;;;;;6.83;5.27;;;;;;;;;;4936671;29;20448;-66
2021/11/21 06:50:54;;;;;;;12.00;5.47;;;;;;;;;;4954099;29;20418;-66
2021/11/21 06:53:23;;;;;;;4.87;3.97;;;;;;;;;;4953473;28;20433;-66
2021/11/21 06:55:50;;;;;;;7.13;5.60;;;;;;;;;;4942116;29;20454;-66
2021/11/21 06:58:16;;;;;;;7.07;5.40;;;;;;;;;;4935222;29;20420;-67
2021/11/21 07:00:42;;;;;;;6.43;5.37;;;;;;;;;;4935501;29;20411;-66
2021/11/21 07:03:08;;;;;;;6.80;5.30;;;;;;;;;;4935515;29;20419;-66
2021/11/21 07:05:34;;;;;;;6.87;5.43;;;;;;;;;;4942824;29;20777;-66
2021/11/21 07:08:00;;;;;;;8.47;5.50;;;;;;;;;;4954399;29;20488;-66
2021/11/21 07:10:27;;;;;;;6.17;4.63;;;;;;;;;;4954270;29;20406;-66
2021/11/21 07:12:53;;;;;;;6.00;4.97;;;;;;;;;;4952799;29;20950;-66
2021/11/21 07:15:19;;;;;;;7.03;5.47;;;;;;;;;;4950998;28;20619;-66
2021/11/21 07:17:51;;;;;;;6.30;5.23;;;;;;;;;;4935200;29;20404;-66
2021/11/21 07:20:17;;;;;;;7.00;5.10;;;;;;;;;;4935700;29;20412;-66
2021/11/21 07:22:45;;;;;;;7.03;5.10;;;;;;;;;;4935624;29;20828;-66
2021/11/21 07:25:12;;;;;;;15.43;6.00;;;;;;;;;;4935108;29;20496;-66
2021/11/21 07:27:40;;;;;;;7.50;5.40;;;;;;;;;;4952891;29;20774;-66
2021/11/21 07:30:06;;;;;;;7.40;5.70;;;;;;;;;;4952890;29;20465;-66
2021/11/21 07:32:32;;;;;;;9.30;6.57;;;;;;;;;;4952912;29;20461;-66
2021/11/21 07:34:58;;;;;;;6.90;5.60;;;;;;;;;;4953977;28;20504;-66
2021/11/21 07:37:24;;;;;;;7.13;5.73;;;;;;;;;;4942685;28;20419;-66
2021/11/21 07:39:50;;;;;;;6.17;5.50;;;;;;;;;;4935293;29;20499;-66
2021/11/21 07:42:16;;;;;;;9.60;5.23;;;;;;;;;;4947655;29;20422;-66
2021/11/21 07:44:42;;;;;;;7.73;4.70;;;;;;;;;;4934375;28;20493;-66
2021/11/21 07:47:08;;;;;;;6.70;5.20;;;;;;;;;;4942553;28;20415;-66
2021/11/21 07:49:34;;;;;;;8.63;5.00;;;;;;;;;;4952863;28;20414;-66
2021/11/21 07:52:00;;;;;;;5.80;4.73;;;;;;;;;;4952032;28;20466;-66
2021/11/21 07:54:26;;;;;;;5.70;5.00;;;;;;;;;;4953506;28;20497;-66
2021/11/21 07:56:52;;;;;;;6.20;5.17;;;;;;;;;;4950637;29;20412;-66
2021/11/21 07:59:19;;;;;;;5.60;4.73;;;;;;;;;;4948607;29;20414;-66
2021/11/21 08:01:46;;;;;;;6.07;5.47;;;;;;;;;;4939941;29;20428;-66
2021/11/21 08:04:12;;;;;;;6.90;5.40;;;;;;;;;;4934511;29;20819;-66
2021/11/21 08:06:38;;;;;;;5.83;3.97;;;;;;;;;;4934607;29;20847;-66
2021/11/21 08:09:05;;;;;;;5.73;5.13;;;;;;;;;;4950746;29;20817;-66
2021/11/21 08:11:31;;;;;;;6.40;5.17;;;;;;;;;;4952443;29;20514;-66
2021/11/21 08:13:57;;;;;;;8.20;5.20;;;;;;;;;;4953114;29;20575;-66
2021/11/21 08:16:23;;;;;;;6.27;4.97;;;;;;;;;;4953137;29;20441;-66
2021/11/21 08:18:49;;;;;;;5.67;4.80;;;;;;;;;;4951249;29;20415;-66
2021/11/21 08:21:15;;;;;;;7.07;5.50;;;;;;;;;;4951782;29;20422;-66
2021/11/21 08:23:41;;;;;;;6.80;5.50;;;;;;;;;;4953042;28;20517;-66
2021/11/21 08:26:07;;;;;;;7.20;5.80;;;;;;;;;;4953143;29;20812;-66
2021/11/21 08:28:34;;;;;;;7.37;5.93;;;;;;;;;;4944618;29;20817;-67
2021/11/21 08:31:00;;;;;;;7.00;6.30;;;;;;;;;;4934368;29;20411;-66
2021/11/21 08:33:27;;;;;;;5.57;4.57;;;;;;;;;;4952927;28;20461;-66
2021/11/21 08:35:53;;;;;;;5.60;5.10;;;;;;;;;;4952944;29;20458;-66
2021/11/21 08:38:19;;;;;;;7.10;5.00;;;;;;;;;;4943192;28;20417;-66
2021/11/21 08:40:45;;;;;;;6.87;6.00;;;;;;;;;;4951527;28;20422;-66
2021/11/21 08:43:11;;;;;;;7.27;5.17;;;;;;;;;;4952895;28;20501;-67
2021/11/21 08:45:37;;;;;;;6.03;5.40;;;;;;;;;;4952813;29;20421;-67
2021/11/21 08:48:04;;;;;;;8.60;6.70;;;;;;;;;;4942730;29;20412;-66
2021/11/21 08:50:31;;;;;;;6.57;5.93;;;;;;;;;;4934195;29;20423;-67
2021/11/21 08:52:57;;;;;;;6.60;5.73;;;;;;;;;;4949151;28;20502;-67
2021/11/21 08:55:23;;;;;;;6.83;6.13;;;;;;;;;;4952787;28;20536;-67
2021/11/21 08:57:49;;;;;;;6.93;5.77;;;;;;;;;;4952345;29;20403;-67
2021/11/21 09:00:16;;;;;;;9.50;6.20;;;;;;;;;;4952080;29;20414;-67
2021/11/21 09:02:43;;;;;;;6.83;5.43;;;;;;;;;;4951079;28;20408;-67
2021/11/21 09:05:10;;;;;;;5.80;5.20;;;;;;;;;;4945374;28;20435;-66
2021/11/21 09:07:37;;;;;;;8.27;6.03;;;;;;;;;;4947641;29;20426;-66
2021/11/21 09:10:07;;;;;;;7.13;5.33;;;;;;;;;;4946643;29;20824;-67
2021/11/21 09:12:33;;;;;;;6.33;5.50;;;;;;;;;;4943634;29;20784;-66
2021/11/21 09:15:00;;;;;;;6.80;5.90;;;;;;;;;;4933223;29;20554;-67
2021/11/21 09:17:26;;;;;;;8.00;6.03;;;;;;;;;;4945121;29;20431;-67
2021/11/21 09:19:52;;;;;;;8.37;6.40;;;;;;;;;;4944105;29;20424;-67
2021/11/21 09:22:18;;;;;;;7.77;5.80;;;;;;;;;;4933108;29;20793;-67
2021/11/21 09:24:44;;;;;;;10.60;5.40;;;;;;;;;;4947888;28;20488;-67
2021/11/21 09:27:14;;;;;;;7.77;6.43;;;;;;;;;;4950299;29;20418;-67
2021/11/21 09:29:43;;;;;;;7.43;6.30;;;;;;;;;;4951773;28;20418;-67
2021/11/21 09:32:10;;;;;;;6.53;4.93;;;;;;;;;;4952290;29;20416;-67
2021/11/21 09:34:36;;;;;;;7.27;6.00;;;;;;;;;;4941030;28;20553;-67
2021/11/21 09:37:02;;;;;;;7.40;5.17;;;;;;;;;;4939964;29;20427;-67
2021/11/21 09:39:28;;;;;;;6.43;4.87;;;;;;;;;;4933328;29;20411;-67
2021/11/21 09:41:54;;;;;;;7.40;5.57;;;;;;;;;;4933291;29;20771;-67
2021/11/21 09:44:20;;;;;;;6.60;5.10;;;;;;;;;;4938697;29;20461;-67
2021/11/21 09:46:46;;;;;;;6.37;5.33;;;;;;;;;;4950244;29;20452;-67
2021/11/21 09:49:15;;;;;;;5.90;5.30;;;;;;;;;;4950582;28;20465;-67
2021/11/21 09:51:41;;;;;;;6.83;5.33;;;;;;;;;;4935861;28;20429;-67
2021/11/21 09:54:07;;;;;;;6.33;4.50;;;;;;;;;;4934317;29;20423;-67
2021/11/21 09:56:33;;;;;;;6.10;5.43;;;;;;;;;;4950057;29;20417;-67
2021/11/21 09:58:59;;;;;;;5.00;4.50;;;;;;;;;;4951202;28;20495;-67
2021/11/21 10:01:37;;;;;;;5.50;4.60;;;;;;;;;;4952073;29;20409;-67
2021/11/21 10:04:03;;;;;;;6.57;5.53;;;;;;;;;;4951314;28;20815;-67
2021/11/21 10:06:30;;;;;;;6.30;5.40;;;;;;;;;;4934350;29;20553;-67
2021/11/21 10:08:57;;;;;;;6.93;5.60;;;;;;;;;;4938634;28;20419;-67
2021/11/21 10:11:23;;;;;;;7.20;6.50;;;;;;;;;;4951748;29;20823;-67
2021/11/21 10:13:53;;;;;;;10.20;6.30;;;;;;;;;;4951097;28;20800;-67
2021/11/21 10:16:19;;;;;;;7.63;5.80;;;;;;;;;;4936964;29;20459;-67
2021/11/21 10:18:49;;;;;;;9.07;6.00;;;;;;;;;;4936793;28;20407;-67
2021/11/21 10:21:16;;;;;;;9.87;6.20;;;;;;;;;;4935786;29;20920;-67
2021/11/21 10:23:42;;;;;;;8.50;5.53;;;;;;;;;;4935721;29;20427;-67
2021/11/21 10:26:09;;;;;;;5.90;5.20;;;;;;;;;;4943630;29;20422;-67
2021/11/21 10:28:35;;;;;;;11.43;5.13;;;;;;;;;;4954288;28;20445;-66
2021/11/21 10:31:10;;;;;;;6.90;4.77;;;;;;;;;;4954407;28;20785;-67
2021/11/21 10:33:38;;;;;;;5.57;4.60;;;;;;;;;;4954648;28;21001;-66
2021/11/21 10:36:09;;;;;;;6.67;5.00;;;;;;;;;;4951018;28;20454;-66
2021/11/21 10:38:38;;;;;;;7.37;5.50;;;;;;;;;;4953161;29;20463;-66
2021/11/21 10:41:08;;;;;;;6.47;5.10;;;;;;;;;;4941925;29;20416;-66
2021/11/21 10:43:41;;;;;;;7.30;5.97;;;;;;;;;;4935292;29;20485;-66
2021/11/21 10:46:19;;;;;;;7.17;6.13;;;;;;;;;;4938972;29;20840;-66
2021/11/21 10:48:45;;;;;;;7.17;6.37;;;;;;;;;;4954203;29;20420;-66
2021/11/21 10:51:18;;;;;;;7.93;6.30;;;;;;;;;;4953843;29;20475;-66
2021/11/21 10:53:46;;;;;;;8.00;5.93;;;;;;;;;;4953206;28;20965;-66
2021/11/21 10:56:12;;;;;;;8.77;6.70;;;;;;;;;;4951337;29;20477;-65
2021/11/21 10:58:47;;;;;;;8.87;5.73;;;;;;;;;;4954515;29;20411;-66
2021/11/21 11:01:39;;;;;;;9.03;7.00;;;;;;;;;;4954354;29;20870;-66
2021/11/21 11:04:17;;;;;;;7.53;6.00;;;;;;;;;;4954293;28;20474;-67
2021/11/21 11:06:43;;;;;;;10.43;7.20;;;;;;;;;;4949649;29;20421;-66
2021/11/21 11:09:22;;;;;;;11.47;7.30;;;;;;;;;;4935070;29;20418;-66
2021/11/21 11:11:49;;;;;;;8.07;6.17;;;;;;;;;;4935610;29;21051;-66
2021/11/21 11:14:18;;;;;;;6.90;5.30;;;;;;;;;;4934910;29;20427;-66
2021/11/21 11:16:48;;;;;;;7.30;6.07;;;;;;;;;;4935896;29;20418;-66
2021/11/21 11:19:15;;;;;;;8.30;5.87;;;;;;;;;;4934920;29;20423;-66
2021/11/21 11:21:42;;;;;;;7.70;6.73;;;;;;;;;;4935689;28;20431;-66
2021/11/21 11:24:09;;;;;;;8.17;6.30;;;;;;;;;;4934994;29;20427;-67
2021/11/21 11:26:35;;;;;;;8.03;6.37;;;;;;;;;;4936541;29;20419;-67
2021/11/21 11:29:02;;;;;;;8.00;6.40;;;;;;;;;;4934504;29;20854;-67
2021/11/21 11:31:35;;;;;;;7.90;6.77;;;;;;;;;;4935148;29;20419;-66
2021/11/21 11:34:04;;;;;;;12.23;7.03;;;;;;;;;;4934820;29;20443;-68
2021/11/21 11:36:31;;;;;;;9.13;6.90;;;;;;;;;;4935267;29;20434;-67
2021/11/21 11:39:00;;;;;;;9.60;6.90;;;;;;;;;;4946769;29;20468;-67
2021/11/21 11:41:30;;;;;;;9.20;6.80;;;;;;;;;;4946009;28;20431;-67
2021/11/21 11:43:57;;;;;;;9.10;7.40;;;;;;;;;;4946840;23;20486;-83
2021/11/21 11:46:24;;;;;;;10.73;7.60;;;;;;;;;;4962803;28;20429;-82
2021/11/21 11:48:50;;;;;;;9.30;7.40;;;;;;;;;;4954522;29;20427;-83
2021/11/21 11:51:33;;;;;;;9.67;8.13;;;;;;;;;;4964589;29;20406;-83
2021/11/21 11:54:03;;;;;;;10.57;8.07;;;;;;;;;;4962930;29;20430;-83
2021/11/21 11:56:31;;;;;;;10.63;8.90;;;;;;;;;;4970930;28;20431;-85
2021/11/21 11:59:05;;;;;;;10.77;8.67;;;;;;;;;;4971224;28;20439;-83
2021/11/21 12:01:38;;;;;;;11.63;9.27;;;;;;;;;;4971218;28;20403;-84
2021/11/21 12:04:05;;;;;;;13.00;9.20;;;;;;;;;;4970243;29;20449;-83
2021/11/21 12:06:40;;;;;;;14.10;9.43;;;;;;;;;;4968562;29;20426;-83
2021/11/21 12:09:19;;;;;;;15.07;10.90;;;;;;;;;;4966531;28;20434;-83
2021/11/21 12:12:00;;;;;;;13.30;9.17;;;;;;;;;;4959185;29;20422;-84
2021/11/21 12:14:35;;;;;;;13.57;10.43;;;;;;;;;;4968651;28;20447;-84
2021/11/21 12:17:03;;;;;;;13.07;10.27;;;;;;;;;;4970116;29;20433;-83
2021/11/21 12:19:41;;;;;;;20.77;12.80;;;;;;;;;;4969023;28;20474;-84
2021/11/21 12:22:25;;;;;;;15.20;11.70;;;;;;;;;;4957449;29;20431;-84
2021/11/21 12:25:03;;;;;;;14.93;10.80;;;;;;;;;;4961541;29;20454;-83
2021/11/21 12:27:30;;;;;;;16.33;11.50;;;;;;;;;;4972724;28;20414;-84
2021/11/21 12:30:15;;;;;;;16.30;10.93;;;;;;;;;;4967085;28;20400;-84
2021/11/21 12:32:49;;;;;;;18.70;11.80;;;;;;;;;;4951689;29;20450;-83
2021/11/21 12:35:25;;;;;;;18.07;12.00;;;;;;;;;;4962310;28;20499;-82
2021/11/21 12:37:51;;;;;;;16.93;11.93;;;;;;;;;;4950770;28;20443;-82
2021/11/21 12:40:17;;;;;;;16.20;10.70;;;;;;;;;;4947792;28;20433;-83
2021/11/21 12:42:44;;;;;;;19.67;12.60;;;;;;;;;;4965703;28;20422;-83
2021/11/21 12:45:12;;;;;;;21.00;14.00;;;;;;;;;;4964932;28;20527;-82
2021/11/21 12:47:40;;;;;;;17.47;11.70;;;;;;;;;;4969282;28;20888;-83
2021/11/21 12:50:07;;;;;;;20.23;13.50;;;;;;;;;;4957995;29;20450;-84
2021/11/21 12:52:33;;;;;;;16.63;12.30;;;;;;;;;;4969045;29;20486;-84
2021/11/21 12:54:59;;;;;;;18.23;11.93;;;;;;;;;;4959663;29;20510;-84
2021/11/21 12:57:26;;;;;;;18.17;11.90;;;;;;;;;;4952964;29;20470;-82
2021/11/21 12:59:52;;;;;;;17.20;12.33;;;;;;;;;;4949970;29;20422;-82
2021/11/21 13:02:20;;;;;;;18.23;13.07;;;;;;;;;;4943086;29;20424;-83
2021/11/21 13:05:06;;;;;;;18.00;11.70;;;;;;;;;;4956057;29;20458;-83
2021/11/21 13:07:32;;;;;;;16.43;12.53;;;;;;;;;;4962989;28;20406;-84
2021/11/21 13:10:04;;;;;;;17.80;12.87;;;;;;;;;;4963642;28;20497;-84
2021/11/21 13:12:33;;;;;;;16.53;12.00;;;;;;;;;;4953275;29;20419;-84
2021/11/21 13:15:00;;;;;;;17.43;11.43;;;;;;;;;;4967004;29;20418;-84
2021/11/21 13:17:27;;;;;;;19.40;12.73;;;;;;;;;;4968517;28;20410;-84
2021/11/21 13:20:04;;;;;;;22.50;13.17;;;;;;;;;;4968841;28;20512;-84
2021/11/21 13:22:49;;;;;;;20.10;12.53;;;;;;;;;;4956579;29;20479;-85
2021/11/21 13:25:27;;;;;;;18.47;13.93;;;;;;;;;;4952520;29;20447;-83
2021/11/21 13:27:53;;;;;;;20.10;12.37;;;;;;;;;;4950410;29;20455;-84
2021/11/21 13:30:21;;;;;;;18.53;13.67;;;;;;;;;;4951798;29;20416;-85
2021/11/21 13:32:47;;;;;;;17.70;12.43;;;;;;;;;;4962380;29;20422;-86
2021/11/21 13:35:20;;;;;;;17.07;12.47;;;;;;;;;;4966242;29;20422;-85
2021/11/21 13:37:47;;;;;;;17.20;12.00;;;;;;;;;;4950188;28;20458;-84
2021/11/21 13:40:14;;;;;;;21.87;12.60;;;;;;;;;;4949975;28;20435;-84
2021/11/21 13:42:40;;;;;;;18.33;12.50;;;;;;;;;;4958354;28;20446;-84
2021/11/21 13:45:06;;;;;;;17.27;13.10;;;;;;;;;;4970063;28;20852;-83
2021/11/21 13:47:32;;;;;;;18.27;12.50;;;;;;;;;;4969804;28;20482;-85
2021/11/21 13:49:59;;;;;;;18.23;13.70;;;;;;;;;;4969075;28;20414;-84
2021/11/21 13:52:30;;;;;;;20.40;13.63;;;;;;;;;;4966356;29;20426;-85
2021/11/21 13:55:06;;;;;;;21.07;12.70;;;;;;;;;;4973520;29;20447;-84
2021/11/21 13:57:40;;;;;;;20.90;14.87;;;;;;;;;;4973620;28;20402;-85
2021/11/21 14:00:15;;;;;;;22.73;13.27;;;;;;;;;;4972414;29;20735;-85
2021/11/21 14:02:42;;;;;;;18.80;12.63;;;;;;;;;;4954980;29;20499;-84
2021/11/21 14:05:12;;;;;;;20.10;13.00;;;;;;;;;;4972913;29;20454;-84
2021/11/21 14:07:57;;;;;;;18.93;13.00;;;;;;;;;;4971785;28;20414;-84
2021/11/21 14:10:25;;;;;;;20.47;12.20;;;;;;;;;;4973169;29;20903;-85
2021/11/21 14:12:51;;;;;;;20.40;12.57;;;;;;;;;;4959830;29;20403;-85
2021/11/21 14:15:19;;;;;;;20.37;12.80;;;;;;;;;;4972809;28;20402;-84
2021/11/21 14:17:56;;;;;;;17.90;13.00;;;;;;;;;;4973417;28;20414;-84
2021/11/21 14:20:42;;;;;;;18.60;12.60;;;;;;;;;;4972057;28;20393;-84
2021/11/21 14:23:14;;;;;;;22.23;14.03;;;;;;;;;;4957017;29;20414;-85
2021/11/21 14:25:51;;;;;;;21.87;12.87;;;;;;;;;;4953832;28;20832;-85
2021/11/21 14:28:20;;;;;;;19.83;12.97;;;;;;;;;;4953139;29;20418;-84
2021/11/21 14:30:51;;;;;;;18.23;12.67;;;;;;;;;;4952586;28;20769;-84
2021/11/21 14:33:23;;;;;;;14.90;11.37;;;;;;;;;;4954230;28;20470;-85
2021/11/21 14:35:51;;;;;;;17.90;11.90;;;;;;;;;;4970085;29;20431;-84
2021/11/21 14:38:17;;;;;;;15.87;11.40;;;;;;;;;;4959393;29;20447;-85